Time;durP1;ratioP1;P1;durP2;ratioP2;P2;SDS_P1;SDS_P2;PMS_P1;PMS_P2;Temp;Humidity;BMP_temperature;BMP_pressure;BME280_temperature;BME280_humidity;BME280_pressure;Samples;Min_cycle;Max_cycle;Signal;HPM_P1;HPM_P2
2023/07/07 10:38:04;;;;;;;3.20;1.45;;;;;;;41.12;nan;110080.88;5623287;22;15082638;-89
2023/07/07 10:41:03;;;;;;;6.50;1.98;;;;;;;41.51;nan;110025.91;6159956;23;20030;-89
2023/07/07 10:43:46;;;;;;;3.17;1.80;;;;;;;39.56;nan;110324.22;6102056;23;20021;-90
2023/07/07 10:46:38;;;;;;;4.07;1.70;;;;;;;39.68;nan;110300.66;6101620;23;20058;-89
2023/07/07 10:57:36;;;;;;;3.75;2.08;;;;;;;39.56;nan;110324.22;6126863;23;20021;-89
2023/07/07 11:00:43;;;;;;;3.22;2.08;;;;;;;40.48;0.00;110172.44;6124735;23;20046;-90
2023/07/07 11:03:38;;;;;;;4.47;1.90;;;;;;;40.97;nan;110099.19;6259527;22;20020;-89
2023/07/07 11:09:52;;;;;;;3.03;1.70;;;;;;;42.56;nan;109845.38;6308749;22;20087;-90
2023/07/07 11:16:26;;;;;;;3.50;1.95;;;;;;;42.47;nan;109866.31;6273387;22;20020;-89
2023/07/07 11:19:36;;;;;;;3.92;1.60;;;;;;;42.17;nan;109908.16;6246582;22;20043;-89
2023/07/07 11:22:52;;;;;;;3.80;2.05;;;;;;;42.97;nan;109782.56;6253860;22;20026;-90
2023/07/07 11:28:48;;;;;;;;;;;;;;;42.34;nan;109882.00;6279744;22;20075;-90
2023/07/07 11:36:16;;;;;;;3.70;1.88;;;;;;;41.47;nan;110020.69;6267889;22;20012;-88
2023/07/07 11:45:21;;;;;;;;;;;;;;;42.29;nan;109892.47;6267902;22;20012;-87
2023/07/07 12:06:47;;;;;;;6.93;2.60;;;;;;;38.42;nan;110502.16;6251994;22;20039;-87
2023/07/07 12:10:20;;;;;;;3.38;1.90;;;;;;;40.47;nan;110169.81;6245883;23;20035;-87
2023/07/07 12:13:50;;;;;;;5.32;1.98;;;;;;;41.35;nan;110028.53;6224829;23;20047;-87
2023/07/07 12:16:37;;;;;;;3.80;1.60;;;;;;;42.22;nan;109887.22;6239264;23;20012;-87
2023/07/07 12:23:47;;;;;;;4.28;1.30;;;;;;;41.96;nan;109929.09;6262409;22;20030;-88
2023/07/07 12:27:21;;;;;;;3.47;1.70;;;;;;;40.82;nan;110109.63;6262181;23;20028;-89
2023/07/07 12:30:44;;;;;;;3.35;2.00;;;;;;;42.41;nan;109855.81;6257743;23;20031;-88
2023/07/07 12:34:39;;;;;;;4.25;1.60;;;;;;;42.36;nan;109861.06;6259335;23;20020;-88
2023/07/07 12:37:39;;;;;;;2.97;1.30;;;;;;;42.84;nan;109777.31;6166814;23;20053;-87
2023/07/07 12:40:21;;;;;;;3.00;1.80;;;;;;;43.19;nan;109725.00;6196469;23;20031;-88
2023/07/07 12:43:28;;;;;;;2.80;1.85;;;;;;;41.17;nan;110033.72;6257307;22;20027;-86
2023/07/07 12:46:44;;;;;;;3.50;1.90;;;;;;;40.69;nan;110107.00;6257005;23;20211;-88
2023/07/07 12:49:56;;;;;;;3.90;1.75;;;;;;;38.27;nan;110499.50;6257337;22;20023;-86
2023/07/07 12:53:32;;;;;;;6.75;1.90;;;;;;;39.25;nan;110342.50;6262826;23;20179;-88
2023/07/07 12:56:29;;;;;;;2.97;1.80;;;;;;;40.67;nan;110107.00;6179654;22;20085;-89
2023/07/07 13:00:13;;;;;;;4.05;2.13;;;;;;;40.71;nan;110107.00;6265883;22;20027;-88
2023/07/07 13:03:35;;;;;;;3.20;1.77;;;;;;;37.74;nan;110572.78;6262524;22;20063;-88
2023/07/07 13:07:00;;;;;;;2.88;1.77;;;;;;;36.82;nan;110721.94;6259971;23;20140;-87
2023/07/07 13:10:04;;;;;;;2.90;1.67;;;;;;;35.97;nan;110863.25;6259187;23;20020;-88
2023/07/07 13:13:46;;;;;;;3.92;1.83;;;;;;;35.78;nan;110884.19;6261596;22;20024;-88
2023/07/07 13:17:23;;;;;;;3.42;1.95;;;;;;;35.86;nan;110868.47;6186440;22;20193;-87
2023/07/07 13:20:30;;;;;;;4.28;1.60;;;;;;;35.92;nan;110855.38;6231756;22;20034;-88
2023/07/07 13:26:32;;;;;;;3.60;1.85;;;;;;;35.10;nan;110983.63;6288757;22;20023;-88
2023/07/07 13:29:23;;;;;;;6.47;1.60;;;;;;;34.98;nan;110996.69;6265133;22;20022;-87
2023/07/07 13:32:54;;;;;;;4.55;1.83;;;;;;;35.69;nan;110886.78;6269394;22;20023;-90
2023/07/07 13:35:40;;;;;;;5.33;1.83;;;;;;;35.46;nan;110920.81;6266623;22;20105;-88
2023/07/07 13:38:45;;;;;;;7.25;2.22;;;;;;;35.57;nan;110876.31;6289539;22;20018;-86
2023/07/07 13:41:41;;;;;;;5.97;2.13;;;;;;;36.11;nan;110816.13;6245914;22;20074;-89
2023/07/07 17:18:13;;;;;;;3.97;2.15;;;;;;;27.92;nan;112101.16;6293705;22;20074;-87
2023/07/07 19:26:22;;;;;;;6.47;2.83;;;;;;;-143.98;0.00;101379.13;6316132;22;20019;-86
2023/07/07 19:29:10;;;;;;;11.55;3.17;;;;;;;-143.98;0.00;101379.13;6294509;22;20069;-86
2023/07/07 19:31:57;;;;;;;4.38;2.45;;;;;;;-143.98;0.00;101379.13;6317322;22;20031;-85
2023/07/07 19:34:37;;;;;;;7.93;2.88;;;;;;;-143.98;0.00;101379.13;6288044;22;20533;-87
2023/07/07 19:37:05;;;;;;;6.07;2.60;;;;;;;-143.98;0.00;101379.13;6291814;22;20015;-86
2023/07/07 19:39:55;;;;;;;7.28;2.78;;;;;;;-143.98;0.00;101379.13;6297299;22;20011;-86
2023/07/07 19:42:38;;;;;;;7.15;2.85;;;;;;;-143.98;0.00;101379.13;6282922;22;20018;-86
2023/07/07 19:45:07;;;;;;;5.78;2.88;;;;;;;-143.98;0.00;101379.13;6292095;22;20023;-86
2023/07/07 20:13:39;;;;;;;6.20;2.90;;;;;;;-143.98;0.00;101379.13;6324744;22;20067;-89
2023/07/07 20:16:24;;;;;;;8.07;3.25;;;;;;;-143.98;0.00;101379.13;6309658;22;20011;-89
2023/07/07 20:19:16;;;;;;;10.68;2.88;;;;;;;-143.98;0.00;101379.13;6322675;22;20046;-89
2023/07/07 20:21:44;;;;;;;10.43;2.97;;;;;;;-143.98;0.00;101379.13;6282715;22;20027;-88
2023/07/07 20:24:19;;;;;;;6.18;3.38;;;;;;;-143.98;0.00;101379.13;6278479;22;20027;-88
2023/07/07 20:26:50;;;;;;;7.65;3.13;;;;;;;-143.98;0.00;101379.13;6280503;22;20177;-88
2023/07/07 20:29:32;;;;;;;8.77;3.38;;;;;;;-143.98;0.00;101379.13;6280827;22;20031;-88
2023/07/07 20:32:29;;;;;;;9.00;3.30;;;;;;;-143.98;0.00;101379.13;6303582;22;20278;-88
2023/07/07 20:34:57;;;;;;;5.18;3.03;;;;;;;-143.98;0.00;101379.13;6308091;22;20074;-88
2023/07/07 20:37:36;;;;;;;7.60;3.35;;;;;;;-143.98;0.00;101379.13;6289928;22;20081;-88
2023/07/07 20:40:37;;;;;;;6.13;3.30;;;;;;;-143.98;0.00;101379.13;6256979;22;20038;-88
2023/07/07 20:43:18;;;;;;;9.07;3.40;;;;;;;-143.98;0.00;101379.13;6305957;22;20341;-89
2023/07/07 20:45:52;;;;;;;7.13;2.97;;;;;;;-143.98;0.00;101379.13;6255142;22;20026;-88
2023/07/07 20:48:42;;;;;;;12.80;3.20;;;;;;;-143.98;0.00;101379.13;6283241;22;20031;-88
2023/07/07 20:51:12;;;;;;;5.75;3.20;;;;;;;-143.98;0.00;101379.13;6279776;22;20027;-87
2023/07/07 20:53:41;;;;;;;7.53;2.60;;;;;;;-143.98;0.00;101379.13;6255376;22;20046;-89
2023/07/07 20:56:15;;;;;;;7.47;3.08;;;;;;;-143.98;0.00;101379.13;6307761;22;20027;-88
2023/07/07 20:58:46;;;;;;;6.30;3.15;;;;;;;-143.98;0.00;101379.13;6251915;22;20027;-88
2023/07/07 21:01:27;;;;;;;6.40;3.10;;;;;;;-143.98;0.00;101379.13;6285447;22;20034;-88
2023/07/07 21:04:01;;;;;;;8.73;3.13;;;;;;;-143.98;0.00;101379.13;6280517;22;20058;-89
2023/07/07 21:06:33;;;;;;;9.43;3.50;;;;;;;-143.98;0.00;101379.13;6255422;22;20027;-88
2023/07/07 21:09:15;;;;;;;;;;;;;;;-143.98;0.00;101379.13;6258115;22;20038;-88
2023/07/07 21:11:52;;;;;;;10.98;3.30;;;;;;;-143.98;0.00;101379.13;6279234;22;20136;-88
2023/07/07 21:14:24;;;;;;;4.95;2.90;;;;;;;-143.98;0.00;101379.13;6279353;22;20088;-88
2023/07/07 21:17:04;;;;;;;6.68;2.80;;;;;;;-143.98;0.00;101379.13;6282131;22;20023;-88
2023/07/07 21:19:44;;;;;;;6.85;3.42;;;;;;;-143.98;0.00;101379.13;6280165;22;20031;-88
2023/07/07 21:22:21;;;;;;;10.25;2.83;;;;;;;-143.98;0.00;101379.13;6254245;22;20214;-86
2023/07/07 21:24:58;;;;;;;5.95;3.10;;;;;;;-143.98;0.00;101379.13;6252367;22;20058;-86
2023/07/07 21:27:40;;;;;;;5.78;2.65;;;;;;;-143.98;0.00;101379.13;6280951;22;20458;-86
2023/07/07 21:30:24;;;;;;;6.45;2.90;;;;;;;-143.98;0.00;101379.13;6252353;22;20027;-86
2023/07/07 21:32:51;;;;;;;4.15;2.35;;;;;;;-143.98;0.00;101379.13;6253608;22;20285;-86
2023/07/07 21:35:18;;;;;;;6.10;3.22;;;;;;;-143.98;0.00;101379.13;6281239;22;20421;-86
2023/07/07 21:37:46;;;;;;;7.63;2.97;;;;;;;-143.98;0.00;101379.13;6254745;22;20023;-86
2023/07/07 21:40:32;;;;;;;6.13;3.10;;;;;;;-143.98;0.00;101379.13;6279547;22;20035;-86
2023/07/07 21:43:12;;;;;;;9.52;3.42;;;;;;;-143.98;0.00;101379.13;6258504;22;20126;-86
2023/07/07 21:45:41;;;;;;;13.60;2.75;;;;;;;-143.98;0.00;101379.13;6281631;22;20286;-86
2023/07/07 21:48:28;;;;;;;6.43;2.85;;;;;;;-143.98;0.00;101379.13;6279305;22;20042;-86
2023/07/07 21:51:11;;;;;;;8.65;3.28;;;;;;;-143.98;0.00;101379.13;6256275;22;20037;-86
2023/07/07 21:53:47;;;;;;;6.97;3.47;;;;;;;-143.98;0.00;101379.13;6258183;22;20027;-87
2023/07/07 21:56:29;;;;;;;6.30;2.70;;;;;;;-143.98;0.00;101379.13;6276392;22;20309;-86
2023/07/07 21:59:21;;;;;;;5.95;2.88;;;;;;;-143.98;0.00;101379.13;6281678;22;20080;-86
2023/07/07 22:01:57;;;;;;;5.97;3.13;;;;;;;-143.98;0.00;101379.13;6278217;22;20352;-86
2023/07/07 22:04:29;;;;;;;5.53;3.08;;;;;;;-143.98;0.00;101379.13;6278225;22;20051;-86
2023/07/07 22:07:03;;;;;;;7.93;3.65;;;;;;;-143.98;0.00;101379.13;6254729;22;20115;-86
2023/07/07 22:09:44;;;;;;;9.38;3.90;;;;;;;-143.98;0.00;101379.13;6255321;22;20204;-85
2023/07/07 22:12:16;;;;;;;7.93;3.70;;;;;;;-143.98;0.00;101379.13;6251101;22;20027;-86
2023/07/07 22:14:47;;;;;;;10.57;3.33;;;;;;;-143.98;0.00;101379.13;6276683;22;20335;-86
2023/07/07 22:17:20;;;;;;;7.50;3.60;;;;;;;-143.98;0.00;101379.13;6254774;22;20061;-86
2023/07/07 22:19:54;;;;;;;5.22;2.78;;;;;;;-143.98;0.00;101379.13;6253720;22;20023;-86
2023/07/07 22:22:26;;;;;;;7.57;3.20;;;;;;;-143.98;0.00;101379.13;6283981;22;20087;-86
2023/07/07 22:24:53;;;;;;;6.93;3.67;;;;;;;-143.98;0.00;101379.13;6291672;22;20414;-86
2023/07/07 22:27:22;;;;;;;6.53;3.08;;;;;;;-143.98;0.00;101379.13;6254263;22;20047;-86
2023/07/07 22:29:57;;;;;;;7.00;3.05;;;;;;;-143.98;0.00;101379.13;6281533;22;20027;-86
2023/07/07 22:32:26;;;;;;;13.02;3.42;;;;;;;-143.98;0.00;101379.13;6253588;22;20034;-86
2023/07/07 22:34:58;;;;;;;9.15;3.40;;;;;;;-143.98;0.00;101379.13;6253703;22;20031;-86
2023/07/07 22:37:25;;;;;;;9.00;3.85;;;;;;;-143.98;0.00;101379.13;6304961;22;20270;-86
2023/07/07 22:39:57;;;;;;;10.07;4.00;;;;;;;-143.98;0.00;101379.13;6253127;22;20118;-86
2023/07/07 22:42:35;;;;;;;7.57;3.10;;;;;;;-143.98;0.00;101379.13;6280373;22;20167;-86
2023/07/07 22:45:30;;;;;;;6.38;3.22;;;;;;;-143.98;0.00;101379.13;6254422;22;20031;-86
2023/07/07 22:48:17;;;;;;;6.70;3.35;;;;;;;-143.98;0.00;101379.13;6257018;22;20174;-86
2023/07/07 22:51:09;;;;;;;8.90;3.63;;;;;;;-143.98;0.00;101379.13;6283325;22;20031;-85
2023/07/07 22:57:00;;;;;;;8.40;3.97;;;;;;;-143.98;0.00;101379.13;6227328;22;20027;-85
2023/07/07 22:59:28;;;;;;;8.35;3.88;;;;;;;-143.98;0.00;101379.13;6263015;22;20073;-87
2023/07/07 23:01:57;;;;;;;7.03;3.40;;;;;;;-143.98;0.00;101379.13;6257994;22;20027;-87
2023/07/07 23:04:36;;;;;;;9.15;4.03;;;;;;;-143.98;0.00;101379.13;6257370;22;20240;-85
2023/07/07 23:07:11;;;;;;;9.32;3.70;;;;;;;-143.98;0.00;101379.13;6257769;22;20034;-85
2023/07/07 23:09:48;;;;;;;12.80;3.85;;;;;;;-143.98;0.00;101379.13;6290008;22;20231;-87
2023/07/07 23:12:20;;;;;;;;;;;;;;;-143.98;0.00;101379.13;6300294;22;20035;-86
2023/07/07 23:15:26;;;;;;;7.07;3.53;;;;;;;-143.98;0.00;101379.13;6283753;22;19940;-85
2023/07/07 23:18:17;;;;;;;7.55;3.67;;;;;;;-143.98;0.00;101379.13;6280567;22;20102;-87
2023/07/07 23:20:56;;;;;;;10.00;4.30;;;;;;;-143.98;0.00;101379.13;6257364;22;20041;-86
2023/07/07 23:23:33;;;;;;;7.82;3.67;;;;;;;-143.98;0.00;101379.13;6282639;22;20042;-87
2023/07/07 23:26:36;;;;;;;7.55;3.97;;;;;;;-143.98;0.00;101379.13;6284587;22;20035;-87
2023/07/07 23:29:08;;;;;;;5.43;3.85;;;;;;;-143.98;0.00;101379.13;6247284;22;20167;-86
2023/07/07 23:31:37;;;;;;;5.55;3.47;;;;;;;-143.98;0.00;101379.13;6282592;22;20043;-86
2023/07/07 23:34:04;;;;;;;6.35;3.97;;;;;;;-143.98;0.00;101379.13;6257767;22;20027;-86
2023/07/07 23:36:41;;;;;;;9.30;4.53;;;;;;;-143.98;0.00;101379.13;6286493;22;20135;-86
2023/07/07 23:39:11;;;;;;;9.05;3.92;;;;;;;-143.98;0.00;101379.13;6259360;22;20038;-86
2023/07/07 23:41:46;;;;;;;7.22;4.28;;;;;;;-143.98;0.00;101379.13;6259155;22;20031;-86
2023/07/07 23:44:31;;;;;;;9.30;4.10;;;;;;;-143.98;0.00;101379.13;6263205;22;20037;-86
2023/07/07 23:47:10;;;;;;;9.25;4.13;;;;;;;-143.98;0.00;101379.13;6285997;22;20039;-86
2023/07/07 23:49:55;;;;;;;9.00;4.07;;;;;;;-143.98;0.00;101379.13;6287408;22;20027;-86
2023/07/07 23:52:25;;;;;;;6.85;4.18;;;;;;;-143.98;0.00;101379.13;6308294;22;20081;-86
2023/07/07 23:54:52;;;;;;;8.35;3.58;;;;;;;-143.98;0.00;101379.13;6256696;22;20081;-86
2023/07/07 23:57:35;;;;;;;9.90;4.68;;;;;;;-143.98;0.00;101379.13;6284276;22;20126;-86
